createdAt,value
2023-03-31T00:01:26.789Z,1.93
2023-03-31T00:04:02.039Z,2.37
2023-03-31T00:06:31.221Z,1.83
2023-03-31T00:09:02.878Z,1.70
2023-03-31T00:11:31.417Z,1.67
2023-03-31T00:14:00.047Z,1.93
2023-03-31T00:16:30.066Z,1.70
2023-03-31T00:18:58.906Z,1.83
2023-03-31T00:21:29.764Z,1.43
2023-03-31T00:23:59.390Z,2.10
2023-03-31T00:26:28.200Z,1.93
2023-03-31T00:28:56.864Z,2.00
2023-03-31T00:31:25.633Z,1.60
2023-03-31T00:33:55.802Z,2.10
2023-03-31T00:36:27.156Z,2.33
2023-03-31T00:38:56.250Z,1.40
2023-03-31T00:41:24.989Z,1.70
2023-03-31T00:44:22.642Z,1.70
2023-03-31T00:46:53.780Z,2.40
2023-03-31T00:49:27.180Z,1.90
2023-03-31T00:51:58.641Z,2.27
2023-03-31T00:54:27.463Z,1.50
2023-03-31T00:56:58.529Z,1.77
2023-03-31T00:59:28.814Z,1.53
2023-03-31T01:01:59.210Z,1.57
2023-03-31T01:04:29.807Z,1.57
2023-03-31T01:07:00.967Z,1.90
2023-03-31T01:09:35.274Z,1.20
2023-03-31T01:12:08.064Z,1.50
2023-03-31T01:14:36.725Z,1.80
2023-03-31T01:17:05.564Z,1.27
2023-03-31T01:19:46.104Z,1.20
2023-03-31T01:22:45.885Z,1.30
2023-03-31T01:25:32.820Z,1.27
2023-03-31T01:28:11.245Z,1.40
2023-03-31T01:31:16.745Z,1.20
2023-03-31T01:34:23.780Z,1.60
2023-03-31T01:37:32.747Z,2.20
2023-03-31T01:40:17.575Z,1.03
2023-03-31T01:42:47.866Z,1.90
2023-03-31T01:45:21.361Z,1.40
2023-03-31T01:47:54.475Z,1.50
2023-03-31T01:50:25.811Z,1.13
2023-03-31T01:52:57.700Z,1.40
2023-03-31T01:55:31.309Z,1.33
2023-03-31T01:58:01.304Z,1.03
2023-03-31T02:00:33.336Z,1.17
2023-03-31T02:03:05.005Z,1.57
2023-03-31T02:05:36.319Z,1.00
2023-03-31T02:08:06.751Z,1.67
2023-03-31T02:10:36.736Z,1.47
2023-03-31T02:13:05.625Z,1.10
2023-03-31T02:15:36.502Z,1.23
2023-03-31T02:18:11.361Z,1.37
2023-03-31T02:20:42.068Z,1.10
2023-03-31T02:23:11.110Z,0.93
2023-03-31T02:25:46.261Z,2.07
2023-03-31T02:28:16.225Z,1.07
2023-03-31T02:30:47.278Z,1.37
2023-03-31T02:33:16.699Z,1.30
2023-03-31T02:35:46.464Z,1.40
2023-03-31T02:38:15.769Z,1.37
2023-03-31T02:40:48.170Z,1.27
2023-03-31T02:43:16.745Z,2.13
2023-03-31T02:45:46.704Z,1.67
2023-03-31T02:48:18.126Z,1.40
2023-03-31T02:51:14.816Z,1.30
2023-03-31T02:53:49.970Z,1.20
2023-03-31T02:56:33.500Z,1.03
2023-03-31T02:59:21.968Z,0.80
2023-03-31T03:01:58.419Z,1.40
2023-03-31T03:04:38.376Z,1.00
2023-03-31T03:07:10.043Z,0.90
2023-03-31T03:09:45.324Z,0.90
2023-03-31T03:12:18.222Z,1.10
2023-03-31T03:14:48.433Z,1.23
2023-03-31T03:17:18.511Z,1.20
2023-03-31T03:19:50.452Z,0.93
2023-03-31T03:22:20.982Z,1.40
2023-03-31T03:24:49.661Z,1.33
2023-03-31T03:27:19.736Z,0.90
2023-03-31T03:29:48.264Z,1.40
2023-03-31T03:32:16.855Z,1.13
2023-03-31T03:34:45.479Z,1.27
2023-03-31T03:37:14.010Z,0.77
2023-03-31T03:39:42.584Z,1.30
2023-03-31T03:42:11.175Z,1.10
2023-03-31T03:44:41.123Z,1.23
2023-03-31T03:47:09.692Z,1.00
2023-03-31T03:49:38.254Z,1.40
2023-03-31T03:52:07.201Z,1.30
2023-03-31T03:54:35.853Z,1.50
2023-03-31T03:57:04.469Z,1.77
2023-03-31T03:59:33.101Z,1.10
2023-03-31T04:02:03.097Z,1.13
2023-03-31T04:04:31.792Z,1.27
2023-03-31T04:07:00.664Z,1.20
2023-03-31T04:09:29.645Z,1.20
2023-03-31T04:11:58.289Z,1.27
2023-03-31T04:14:27.036Z,1.00
2023-03-31T04:16:56.478Z,1.10
2023-03-31T04:19:27.458Z,1.00
2023-03-31T04:22:02.663Z,1.30
2023-03-31T04:24:33.174Z,1.10
2023-03-31T04:27:03.105Z,1.40
2023-03-31T04:29:33.711Z,1.37
2023-03-31T04:32:03.204Z,1.37
2023-03-31T04:34:36.017Z,1.00
2023-03-31T04:37:04.837Z,1.43
2023-03-31T04:39:33.467Z,1.33
2023-03-31T04:42:02.447Z,1.33
2023-03-31T04:44:31.041Z,1.70
2023-03-31T04:47:02.938Z,1.37
2023-03-31T04:49:34.068Z,1.20
2023-03-31T04:52:03.120Z,1.10
2023-03-31T04:54:31.791Z,1.50
2023-03-31T04:57:00.423Z,1.17
2023-03-31T04:59:29.104Z,1.13
2023-03-31T05:01:58.110Z,1.63
2023-03-31T05:04:26.805Z,1.20
2023-03-31T05:06:56.799Z,1.30
2023-03-31T05:09:25.455Z,1.77
2023-03-31T05:11:53.966Z,1.00
2023-03-31T05:14:22.592Z,1.57
2023-03-31T05:16:51.565Z,1.90
2023-03-31T05:19:20.209Z,1.30
2023-03-31T05:21:48.999Z,1.87
2023-03-31T05:24:18.967Z,1.37
2023-03-31T05:26:52.435Z,1.10
2023-03-31T05:29:21.108Z,1.93
2023-03-31T05:31:49.932Z,1.47
2023-03-31T05:34:18.636Z,1.70
2023-03-31T05:36:48.067Z,1.37
2023-03-31T05:39:18.709Z,1.77
2023-03-31T05:41:47.306Z,2.37
2023-03-31T05:44:16.226Z,2.30
2023-03-31T05:46:44.989Z,1.73
2023-03-31T05:49:16.288Z,1.90
2023-03-31T05:51:44.855Z,1.60
2023-03-31T05:54:13.489Z,1.90
2023-03-31T05:56:43.497Z,1.50
2023-03-31T05:59:12.048Z,1.70
2023-03-31T06:01:41.042Z,1.80
2023-03-31T06:04:09.798Z,1.93
2023-03-31T06:06:38.430Z,1.70
2023-03-31T06:09:07.468Z,1.53
2023-03-31T06:11:36.116Z,1.57
2023-03-31T06:14:06.070Z,1.47
2023-03-31T06:16:34.779Z,2.03
2023-03-31T06:19:03.408Z,1.53
2023-03-31T06:21:32.229Z,2.07
2023-03-31T06:24:01.096Z,2.30
2023-03-31T06:26:29.903Z,2.33
2023-03-31T06:28:58.501Z,1.97
2023-03-31T06:31:28.952Z,1.83
2023-03-31T06:33:57.706Z,1.80
2023-03-31T06:36:26.317Z,1.73
2023-03-31T06:38:55.610Z,1.70
2023-03-31T06:41:24.177Z,2.00
2023-03-31T06:43:52.820Z,1.70
2023-03-31T06:46:21.449Z,1.80
2023-03-31T06:48:51.478Z,1.90
2023-03-31T06:51:20.121Z,1.90
2023-03-31T06:53:49.142Z,1.77
2023-03-31T06:56:17.760Z,2.00
2023-03-31T06:58:46.338Z,1.50
2023-03-31T07:01:14.932Z,1.37
2023-03-31T07:03:43.649Z,2.17
2023-03-31T07:06:13.713Z,1.70
2023-03-31T07:08:42.379Z,1.90
2023-03-31T07:11:11.460Z,1.70
2023-03-31T07:13:40.296Z,1.43
2023-03-31T07:16:10.021Z,2.00
2023-03-31T07:18:41.983Z,2.17
2023-03-31T07:21:12.053Z,2.00
2023-03-31T07:23:40.871Z,1.57
2023-03-31T07:26:09.499Z,2.03
2023-03-31T07:28:38.108Z,1.20
2023-03-31T07:31:12.906Z,2.00
2023-03-31T07:33:41.582Z,2.10
2023-03-31T07:36:13.935Z,2.03
2023-03-31T07:38:43.306Z,1.67
2023-03-31T07:41:12.978Z,1.77
2023-03-31T07:43:41.734Z,1.30
2023-03-31T07:46:16.506Z,1.90
2023-03-31T07:48:46.698Z,1.27
2023-03-31T07:51:17.118Z,1.17
2023-03-31T07:53:45.917Z,1.40
2023-03-31T07:56:14.544Z,1.00
2023-03-31T07:58:43.162Z,1.67
2023-03-31T08:01:12.362Z,1.43
2023-03-31T08:03:41.247Z,1.50
2023-03-31T08:06:10.125Z,1.57
2023-03-31T08:08:43.243Z,1.23
2023-03-31T08:11:11.877Z,1.40
2023-03-31T08:13:40.462Z,1.50
2023-03-31T08:16:09.372Z,1.30
2023-03-31T08:18:38.256Z,1.47
2023-03-31T08:21:06.999Z,1.60
2023-03-31T08:23:35.848Z,1.40
2023-03-31T08:26:14.542Z,1.20
2023-03-31T08:28:45.179Z,1.10
2023-03-31T08:31:16.488Z,1.40
2023-03-31T08:33:45.310Z,1.40
2023-03-31T08:36:13.980Z,1.63
2023-03-31T08:38:46.068Z,1.70
2023-03-31T08:41:24.991Z,1.57
2023-03-31T08:43:53.613Z,2.00
2023-03-31T08:46:22.241Z,1.57
2023-03-31T08:48:52.140Z,1.67
2023-03-31T08:51:21.772Z,1.70
2023-03-31T08:53:51.957Z,1.60
2023-03-31T08:56:23.367Z,1.60
2023-03-31T08:58:52.150Z,1.23
2023-03-31T09:01:25.559Z,1.57
2023-03-31T09:04:07.620Z,1.20
2023-03-31T09:06:39.252Z,1.30
2023-03-31T09:09:11.168Z,1.50
2023-03-31T09:11:44.232Z,1.70
2023-03-31T09:14:30.433Z,1.20
2023-03-31T09:17:04.464Z,1.20
2023-03-31T09:19:37.469Z,1.70
2023-03-31T09:22:07.046Z,2.43
2023-03-31T09:24:37.907Z,1.60
2023-03-31T09:27:08.585Z,2.03
2023-03-31T09:29:42.551Z,1.53
2023-03-31T09:32:15.810Z,1.20
2023-03-31T09:34:44.479Z,1.77
2023-03-31T09:37:13.144Z,2.13
2023-03-31T09:39:41.777Z,1.63
2023-03-31T09:42:13.075Z,1.13
2023-03-31T09:44:42.190Z,2.57
2023-03-31T09:47:13.531Z,1.40
2023-03-31T09:49:42.142Z,1.27
2023-03-31T09:52:27.839Z,1.30
2023-03-31T09:54:56.731Z,1.30
2023-03-31T09:57:30.554Z,1.70
2023-03-31T10:00:13.680Z,1.13
2023-03-31T10:02:45.538Z,1.30
2023-03-31T10:05:29.415Z,1.00
2023-03-31T10:08:20.242Z,1.20
2023-03-31T10:10:49.751Z,1.73
2023-03-31T10:13:21.404Z,1.60
2023-03-31T10:15:52.106Z,1.30
2023-03-31T10:18:21.335Z,1.60
2023-03-31T10:20:51.740Z,1.20
2023-03-31T10:23:24.294Z,1.10
2023-03-31T10:25:52.907Z,1.30
2023-03-31T10:28:22.897Z,1.23
2023-03-31T10:30:52.546Z,1.10
2023-03-31T10:33:24.811Z,1.23
2023-03-31T10:35:56.730Z,1.20
2023-03-31T10:38:27.696Z,1.20
2023-03-31T10:40:57.503Z,1.00
2023-03-31T10:43:29.502Z,1.37
2023-03-31T10:45:59.969Z,1.20
2023-03-31T10:48:29.800Z,1.00
2023-03-31T10:51:01.258Z,1.67
2023-03-31T10:53:30.528Z,1.70
2023-03-31T10:56:26.424Z,1.30
2023-03-31T10:59:26.349Z,1.10
2023-03-31T11:02:05.344Z,1.23
2023-03-31T11:04:41.665Z,1.40
2023-03-31T11:07:14.826Z,1.03
2023-03-31T11:09:51.583Z,1.33
2023-03-31T11:12:22.754Z,1.40
2023-03-31T11:15:00.709Z,1.07
2023-03-31T11:17:34.975Z,1.30
2023-03-31T11:20:11.044Z,1.60
2023-03-31T11:22:42.849Z,1.53
2023-03-31T11:25:21.984Z,1.80
2023-03-31T11:28:05.884Z,2.20
2023-03-31T11:30:37.240Z,1.50
2023-03-31T11:33:16.685Z,1.20
2023-03-31T11:36:00.344Z,1.23
2023-03-31T11:38:50.659Z,1.40
2023-03-31T11:41:20.372Z,1.10
2023-03-31T11:43:49.484Z,1.50
2023-03-31T11:46:21.846Z,1.20
2023-03-31T11:48:57.375Z,1.40
2023-03-31T11:51:27.679Z,1.37
2023-03-31T11:53:59.671Z,1.60
2023-03-31T11:56:32.481Z,1.40
2023-03-31T11:59:01.295Z,1.37
2023-03-31T12:01:34.803Z,1.53
2023-03-31T12:04:04.018Z,2.17
2023-03-31T12:06:33.205Z,1.57
2023-03-31T12:09:09.164Z,1.73
2023-03-31T12:11:40.100Z,1.97
2023-03-31T12:14:15.451Z,2.03
2023-03-31T12:16:48.221Z,1.97
2023-03-31T12:19:18.663Z,2.10
2023-03-31T12:21:50.397Z,1.90
2023-03-31T12:24:18.990Z,2.50
2023-03-31T12:26:52.604Z,1.43
2023-03-31T12:29:27.075Z,1.50
2023-03-31T12:31:57.760Z,1.70
2023-03-31T12:34:26.377Z,1.50
2023-03-31T12:37:06.194Z,0.90
2023-03-31T12:39:40.704Z,1.20
2023-03-31T12:42:23.579Z,0.80
2023-03-31T12:44:56.105Z,0.67
2023-03-31T12:47:42.652Z,0.80
2023-03-31T12:50:18.223Z,0.60
2023-03-31T12:52:49.930Z,0.87
2023-03-31T12:55:34.363Z,0.87
2023-03-31T12:58:42.592Z,0.90
2023-03-31T13:01:19.134Z,1.00
2023-03-31T13:04:10.223Z,1.27
2023-03-31T13:06:54.625Z,1.00
2023-03-31T13:09:47.802Z,1.40
2023-03-31T13:12:20.714Z,1.90
2023-03-31T13:14:51.798Z,1.60
2023-03-31T13:17:26.190Z,2.10
2023-03-31T13:19:56.703Z,1.67
2023-03-31T13:22:33.301Z,2.00
2023-03-31T13:25:34.669Z,1.20
2023-03-31T13:28:26.712Z,1.50
2023-03-31T13:31:01.886Z,1.70
2023-03-31T13:33:33.733Z,1.20
2023-03-31T13:36:28.049Z,1.07
2023-03-31T13:39:06.498Z,1.20
2023-03-31T13:41:41.072Z,1.40
2023-03-31T13:44:29.427Z,2.47
2023-03-31T13:47:24.873Z,1.70
2023-03-31T13:49:56.566Z,1.50
2023-03-31T13:52:40.623Z,1.70
2023-03-31T13:55:30.051Z,1.43
2023-03-31T13:58:35.026Z,1.23
2023-03-31T14:01:49.499Z,1.40
2023-03-31T14:04:52.555Z,1.57
2023-03-31T14:07:22.965Z,1.03
2023-03-31T14:09:54.129Z,1.73
2023-03-31T14:12:24.209Z,1.30
2023-03-31T14:14:55.566Z,1.30
2023-03-31T14:17:27.800Z,1.40
2023-03-31T14:20:18.101Z,1.53
2023-03-31T14:22:49.112Z,1.77
2023-03-31T14:25:22.585Z,1.53
2023-03-31T14:28:00.945Z,1.53
2023-03-31T14:30:34.782Z,1.00
2023-03-31T14:33:09.785Z,1.33
2023-03-31T14:35:39.421Z,1.10
2023-03-31T14:38:10.868Z,1.10
2023-03-31T14:40:44.057Z,1.43
2023-03-31T14:43:18.303Z,1.20
2023-03-31T14:45:49.408Z,2.23
2023-03-31T14:48:18.169Z,2.20
2023-03-31T14:50:47.474Z,1.00
2023-03-31T14:53:16.948Z,1.00
2023-03-31T14:55:58.269Z,1.07
2023-03-31T14:58:28.251Z,1.00
2023-03-31T15:00:56.897Z,1.10
2023-03-31T15:03:27.976Z,0.73
2023-03-31T15:05:58.645Z,0.80
2023-03-31T15:08:27.910Z,0.90
2023-03-31T15:11:09.605Z,0.90
2023-03-31T15:13:46.887Z,0.93
2023-03-31T15:16:23.228Z,1.10
2023-03-31T15:18:55.274Z,1.30
2023-03-31T15:21:24.818Z,0.90
2023-03-31T15:23:54.078Z,0.73
2023-03-31T15:26:34.337Z,1.20
2023-03-31T15:29:08.200Z,1.10
2023-03-31T15:31:36.995Z,1.10
2023-03-31T15:34:18.850Z,0.80
2023-03-31T15:36:47.570Z,1.77
2023-03-31T15:39:16.223Z,1.20
2023-03-31T15:41:48.026Z,1.13
2023-03-31T15:44:39.631Z,1.57
2023-03-31T15:47:29.326Z,1.67
2023-03-31T15:49:59.778Z,1.47
2023-03-31T15:52:33.978Z,1.30
2023-03-31T15:55:02.946Z,1.23
2023-03-31T15:57:36.957Z,0.97
2023-03-31T16:00:08.014Z,1.10
2023-03-31T16:02:41.723Z,0.90
2023-03-31T16:05:26.769Z,1.20
2023-03-31T16:07:56.211Z,1.50
2023-03-31T16:10:24.768Z,1.30
2023-03-31T16:12:56.048Z,1.40
2023-03-31T16:15:30.667Z,1.17
2023-03-31T16:18:00.127Z,1.50
2023-03-31T16:20:29.559Z,1.10
2023-03-31T16:22:59.579Z,1.50
2023-03-31T16:25:29.486Z,1.23
2023-03-31T16:28:00.120Z,1.20
2023-03-31T16:30:35.611Z,1.80
2023-03-31T16:33:05.116Z,1.87
2023-03-31T16:35:34.654Z,2.00
2023-03-31T16:38:03.220Z,1.50
2023-03-31T16:40:32.871Z,1.63
2023-03-31T16:43:13.581Z,1.60
2023-03-31T16:45:42.487Z,1.07
2023-03-31T16:48:16.282Z,1.23
2023-03-31T16:50:46.063Z,1.50
2023-03-31T16:53:18.780Z,1.43
2023-03-31T16:55:47.425Z,1.70
2023-03-31T16:58:17.830Z,1.47
2023-03-31T17:00:46.727Z,2.50
2023-03-31T17:03:16.527Z,1.50
2023-03-31T17:05:46.035Z,1.00
2023-03-31T17:08:14.754Z,1.70
2023-03-31T17:10:51.268Z,1.17
2023-03-31T17:13:21.246Z,5.00
2023-03-31T17:15:52.119Z,2.37
2023-03-31T17:18:24.519Z,1.80
2023-03-31T17:20:53.737Z,1.63
2023-03-31T17:23:22.369Z,1.93
2023-03-31T17:25:51.078Z,1.73
2023-03-31T17:28:21.658Z,1.53
2023-03-31T17:30:50.832Z,1.57
2023-03-31T17:33:19.411Z,1.30
2023-03-31T17:35:48.054Z,1.80
2023-03-31T17:38:19.400Z,1.70
2023-03-31T17:40:48.298Z,2.20
2023-03-31T17:43:16.984Z,2.20
2023-03-31T17:45:47.577Z,1.70
2023-03-31T17:48:17.969Z,1.77
2023-03-31T17:50:46.621Z,2.53
2023-03-31T17:53:15.180Z,2.60
2023-03-31T17:55:44.555Z,2.00
2023-03-31T17:58:13.735Z,1.77
2023-03-31T18:00:42.345Z,1.73
2023-03-31T18:03:12.301Z,2.43
2023-03-31T18:05:41.200Z,2.53
2023-03-31T18:08:10.545Z,3.00
2023-03-31T18:10:41.035Z,2.30
2023-03-31T18:13:09.868Z,2.63
2023-03-31T18:15:38.726Z,2.27
2023-03-31T18:18:07.491Z,3.30
2023-03-31T18:20:40.218Z,2.70
2023-03-31T18:23:08.815Z,3.37
2023-03-31T18:25:37.505Z,2.90
2023-03-31T18:28:07.332Z,3.00
2023-03-31T18:30:35.959Z,8.70
2023-03-31T18:33:04.742Z,26.20
2023-03-31T18:35:33.393Z,9.93
2023-03-31T18:38:03.405Z,6.97
2023-03-31T18:40:32.332Z,5.47
2023-03-31T18:43:01.043Z,7.07
2023-03-31T18:45:30.654Z,6.50
2023-03-31T18:47:59.491Z,9.40
2023-03-31T18:50:30.568Z,10.00
2023-03-31T18:52:59.173Z,10.63
2023-03-31T18:55:30.164Z,11.23
2023-03-31T18:57:59.115Z,10.60
2023-03-31T19:00:28.161Z,11.60
2023-03-31T19:02:56.922Z,10.37
2023-03-31T19:05:25.560Z,11.00
2023-03-31T19:07:54.178Z,11.23
2023-03-31T19:10:22.772Z,9.70
2023-03-31T19:12:53.126Z,8.10
2023-03-31T19:15:22.550Z,7.93
2023-03-31T19:17:52.780Z,7.30
2023-03-31T19:20:21.555Z,7.07
2023-03-31T19:22:51.080Z,7.30
2023-03-31T19:25:20.583Z,8.50
2023-03-31T19:27:49.368Z,8.17
2023-03-31T19:30:20.203Z,7.73
2023-03-31T19:32:49.303Z,6.50
2023-03-31T19:35:18.008Z,9.23
2023-03-31T19:37:46.592Z,6.40
2023-03-31T19:40:15.549Z,5.90
2023-03-31T19:42:44.450Z,6.47
2023-03-31T19:45:13.165Z,5.33
2023-03-31T19:47:43.130Z,4.83
2023-03-31T19:50:13.458Z,6.50
2023-03-31T19:52:42.269Z,5.30
2023-03-31T19:55:11.551Z,5.80
2023-03-31T19:57:41.004Z,6.30
2023-03-31T20:00:10.740Z,6.97
2023-03-31T20:02:39.553Z,7.90
2023-03-31T20:05:10.497Z,8.43
2023-03-31T20:07:39.217Z,6.37
2023-03-31T20:10:09.160Z,5.53
2023-03-31T20:12:37.724Z,6.63
2023-03-31T20:15:07.145Z,5.77
2023-03-31T20:17:36.094Z,5.30
2023-03-31T20:20:04.936Z,5.50
2023-03-31T20:22:34.914Z,6.20
2023-03-31T20:25:08.209Z,5.50
2023-03-31T20:27:36.788Z,5.90
2023-03-31T20:30:05.852Z,6.00
2023-03-31T20:32:34.526Z,5.73
2023-03-31T20:35:03.134Z,5.90
2023-03-31T20:37:32.632Z,5.30
2023-03-31T20:40:04.119Z,5.00
2023-03-31T20:42:32.727Z,3.63
2023-03-31T20:45:01.836Z,3.60
2023-03-31T20:47:30.437Z,3.03
2023-03-31T20:49:59.055Z,4.27
2023-03-31T20:52:27.632Z,3.40
2023-03-31T20:54:56.291Z,2.73
2023-03-31T20:57:26.370Z,2.47
2023-03-31T20:59:55.046Z,2.10
2023-03-31T21:02:23.702Z,2.00
2023-03-31T21:04:53.121Z,1.70
2023-03-31T21:07:21.932Z,1.63
2023-03-31T21:09:50.459Z,1.57
2023-03-31T21:12:19.478Z,1.20
2023-03-31T21:14:49.998Z,1.27
2023-03-31T21:17:18.602Z,1.40
2023-03-31T21:19:47.121Z,1.20
2023-03-31T21:22:15.749Z,1.43
2023-03-31T21:24:44.320Z,1.20
2023-03-31T21:27:12.862Z,1.13
2023-03-31T21:29:41.467Z,1.10
2023-03-31T21:32:11.509Z,1.20
2023-03-31T21:34:40.641Z,1.00
2023-03-31T21:37:11.387Z,1.33
2023-03-31T21:39:39.978Z,1.07
2023-03-31T21:42:08.450Z,0.97
2023-03-31T21:44:36.998Z,1.20
2023-03-31T21:47:05.739Z,1.00
2023-03-31T21:49:35.724Z,0.73
2023-03-31T21:52:05.233Z,0.80
2023-03-31T21:54:33.834Z,0.83
2023-03-31T21:57:02.548Z,0.80
2023-03-31T21:59:31.211Z,0.70
2023-03-31T22:01:59.808Z,0.90
2023-03-31T22:04:29.527Z,0.90
2023-03-31T22:07:00.689Z,1.23
2023-03-31T22:09:29.328Z,1.10
2023-03-31T22:11:57.881Z,0.97
2023-03-31T22:14:26.464Z,1.00
2023-03-31T22:16:55.085Z,0.90
2023-03-31T22:19:23.703Z,1.20
2023-03-31T22:21:53.593Z,0.97
2023-03-31T22:24:24.009Z,0.73
2023-03-31T22:26:52.550Z,1.10
2023-03-31T22:29:21.447Z,1.20
2023-03-31T22:31:50.065Z,1.13
2023-03-31T22:34:19.500Z,1.07
2023-03-31T22:36:48.152Z,0.90
2023-03-31T22:39:16.820Z,0.90
2023-03-31T22:41:49.150Z,1.20
2023-03-31T22:44:17.758Z,1.17
2023-03-31T22:46:49.841Z,0.93
2023-03-31T22:49:20.934Z,1.00
2023-03-31T22:51:49.497Z,1.00
2023-03-31T22:54:18.403Z,1.30
2023-03-31T22:56:48.532Z,0.80
2023-03-31T22:59:17.302Z,1.10
2023-03-31T23:01:46.934Z,1.00
2023-03-31T23:04:15.626Z,1.00
2023-03-31T23:06:44.222Z,1.00
2023-03-31T23:09:12.814Z,0.97
2023-03-31T23:11:41.365Z,1.00
2023-03-31T23:14:11.351Z,0.97
2023-03-31T23:16:39.960Z,1.00
2023-03-31T23:19:08.536Z,1.00
2023-03-31T23:21:37.181Z,1.20
2023-03-31T23:24:06.595Z,1.20
2023-03-31T23:26:35.368Z,1.47
2023-03-31T23:29:03.973Z,0.97
2023-03-31T23:31:34.156Z,1.13
2023-03-31T23:34:02.820Z,1.00
2023-03-31T23:36:31.869Z,1.00
2023-03-31T23:39:00.503Z,1.20
2023-03-31T23:41:29.921Z,1.33
2023-03-31T23:44:00.507Z,1.17
2023-03-31T23:46:29.742Z,1.10
2023-03-31T23:48:59.904Z,1.30
2023-03-31T23:51:28.621Z,1.10
2023-03-31T23:53:57.389Z,1.40
2023-03-31T23:56:27.108Z,1.20
2023-03-31T23:58:56.215Z,1.27
